• Join FlightAware (Why Join?)
  • Login
  • US Flag 
09:36PM EDT


 

Airport Tracker/Info


-or-


 

Live Flight TrackerFlight Track Log ✈ UCA596 ✈ 21-Oct-2013 ✈ KIAD - KBGM

Flight Track Log - Related Links

Times and Time Zones

All times are in EDT time to prevent confusion due to time zone crossing. See the UCA596 flight status page for this flight to view local times or setup timezone preferences in your user account.

Time Position Orientation Groundspeed Altitude Reporting Facility
EDT Latitude Longitude Course Direction KTS MPH feet Rate Location/Type
01:33PM 38.9500 -77.5000 288° West 138 159 1,600  Level Potomac TRACON
01:34PM 38.9667 -77.5667 288° West 166 191 3,000 1,440 Climbing Potomac TRACON
01:35PM 39.0000 -77.6167 311° West 187 215 4,500 1,320 Climbing Potomac TRACON
01:36PM 39.0500 -77.6333 345° North 195 224 5,700 1,320 Climbing Potomac TRACON
01:38PM 39.1058 -77.6781 328° Northwest 204 235 7,600 1,320 Climbing Washington Center
01:39PM 39.1575 -77.7036 339° North 199 229 8,700 1,140 Climbing Washington Center
01:40PM 39.2156 -77.7186 349° North 199 229 10,000 1,380 Climbing Washington Center
01:41PM 39.2736 -77.7336 349° North 204 235 11,500 1,380 Climbing Washington Center
01:42PM 39.3297 -77.7514 346° North 204 235 12,800 1,200 Climbing Washington Center
01:43PM 39.3856 -77.7667 348° North 204 235 13,900 600 Climbing Washington Center
01:44PM 39.4500 -77.7847 348° North 209 241 14,000 540 Climbing Washington Center
01:45PM 39.5183 -77.8028 348° North 230 265 15,000 300 Climbing Washington Center
01:47PM 39.6675 -77.8511 346° North 266 306 15,000  Level New York Center
01:48PM 39.7422 -77.8208 17° North 266 306 15,000  Level New York Center
01:49PM 39.8139 -77.7714 28° Northeast 272 313 15,000  Level New York Center
01:50PM 39.8878 -77.7217 27° Northeast 283 326 15,000  Level New York Center
01:51PM 39.9639 -77.6697 28° Northeast 294 338 15,000  Level New York Center
01:52PM 40.0356 -77.6197 28° Northeast 294 338 15,000  Level New York Center
01:53PM 40.1094 -77.5675 28° Northeast 299 344 15,000  Level New York Center
01:54PM 40.1767 -77.5222 27° Northeast 299 344 15,000  Level New York Center
01:55PM 40.2569 -77.4675 27° Northeast 299 344 15,000  Level New York Center
01:56PM 40.3306 -77.4203 26° Northeast 299 344 15,000  Level New York Center
01:57PM 40.4042 -77.3700 27° Northeast 299 344 15,000  Level New York Center
01:58PM 40.4800 -77.3200 27° Northeast 299 344 15,000  Level New York Center
01:59PM 40.5517 -77.2694 28° Northeast 299 344 15,000  Level New York Center
02:00PM 40.6253 -77.2189 28° Northeast 299 344 15,000  Level New York Center
02:01PM 40.6922 -77.1731 27° Northeast 299 344 15,000  Level New York Center
02:02PM 40.7636 -77.1250 27° Northeast 299 344 15,000  Level New York Center
02:03PM 40.8372 -77.0742 28° Northeast 299 344 15,000  Level New York Center
02:04PM 40.9108 -77.0233 28° Northeast 299 344 15,000  Level New York Center
02:05PM 40.9822 -76.9722 28° Northeast 299 344 15,000  Level New York Center
02:06PM 41.0536 -76.9236 27° Northeast 299 344 15,000  Level New York Center
02:07PM 41.1272 -76.8725 28° Northeast 299 344 15,000  Level New York Center
02:08PM 41.2006 -76.8211 28° Northeast 299 344 15,000  Level New York Center
02:09PM 41.2739 -76.7697 28° Northeast 299 344 15,000  Level New York Center
02:10PM 41.3475 -76.7183 28° Northeast 299 344 15,000  Level New York Center
02:11PM 41.4211 -76.6639 29° Northeast 299 344 15,000  Level New York Center
02:12PM 41.4944 -76.6122 28° Northeast 299 344 15,000 -420 Level New York Center
02:13PM 41.5764 -76.5556 27° Northeast 299 344 14,200 -900 Descending New York Center
02:14PM 41.6542 -76.4983 29° Northeast 304 350 13,200 -1,080 Descending New York Center
02:15PM 41.7297 -76.4408 30° Northeast 309 356 12,100 -1,320 Descending New York Center
02:16PM 41.8017 -76.3747 34° Northeast 314 361 10,600 -1,500 Descending New York Center
02:17PM 41.8606 -76.3156 37° Northeast 301 346 9,200 -1,620 Descending New York Center
02:18PM 41.9367 -76.2439 35° Northeast 301 346 7,400 -1,680 Descending New York Center
02:19PM 42.0019 -76.1822 35° Northeast 296 341 5,900 -1,200 Descending New York Center
02:20PM 42.0675 -76.1178 36° Northeast 290 334 5,100 -480 Descending New York Center
02:21PM 42.1314 -76.0839 21° North 269 310 5,000 -420 Descending New York Center
02:22PM 42.1956 -76.0889 357° North 239 275 4,300 -780 Descending New York Center
02:23PM 42.2528 -76.0714 13° North 226 260 3,500 -780 Descending New York Center
02:24PM 42.2672 -76.0247 67° East 135 155 2,800 -660 Descending New York Center
02:25PM 42.2411 -76.0058 152° Southeast 83 96 2,200 3,060 Descending New York Center
02:26PM 42.2569 -75.9764 54° Northeast 83 96 9,000 3,360 Climbing New York Center
02:27PM 42.2642 -75.9489 70° East 83 96 9,000  Level New York Center
02:29PM 42.2000 -75.9667 North  Level FlightAware Approximate
02:36PM 42.2084 -75.9796 North  Level Estimated
02:37PM 42.2084 -75.9796 North  Level Estimated